sensor_id;sensor_type;location;lat;lon;timestamp;P1;durP1;ratioP1;P2;durP2;ratioP2
40044;SDS011;25735;48.122;11.422;2023-04-24T00:00:39;0.93;;;0.82;;
40044;SDS011;25735;48.122;11.422;2023-04-24T00:03:05;2.20;;;0.95;;
40044;SDS011;25735;48.122;11.422;2023-04-24T00:05:31;3.55;;;1.10;;
40044;SDS011;25735;48.122;11.422;2023-04-24T00:07:57;0.85;;;0.70;;
40044;SDS011;25735;48.122;11.422;2023-04-24T00:10:22;3.53;;;1.00;;
40044;SDS011;25735;48.122;11.422;2023-04-24T00:12:48;0.87;;;0.83;;
40044;SDS011;25735;48.122;11.422;2023-04-24T00:15:13;0.70;;;0.70;;
40044;SDS011;25735;48.122;11.422;2023-04-24T00:17:38;2.77;;;0.80;;
40044;SDS011;25735;48.122;11.422;2023-04-24T00:20:04;0.93;;;0.82;;
40044;SDS011;25735;48.122;11.422;2023-04-24T00:22:29;0.82;;;0.70;;
40044;SDS011;25735;48.122;11.422;2023-04-24T00:24:55;4.95;;;1.33;;
40044;SDS011;25735;48.122;11.422;2023-04-24T00:27:20;1.87;;;0.73;;
40044;SDS011;25735;48.122;11.422;2023-04-24T00:29:45;6.50;;;0.80;;
40044;SDS011;25735;48.122;11.422;2023-04-24T00:32:10;1.10;;;0.90;;
40044;SDS011;25735;48.122;11.422;2023-04-24T00:34:35;0.60;;;0.52;;
40044;SDS011;25735;48.122;11.422;2023-04-24T00:37:01;0.88;;;0.60;;
40044;SDS011;25735;48.122;11.422;2023-04-24T00:39:26;1.23;;;0.50;;
40044;SDS011;25735;48.122;11.422;2023-04-24T00:41:51;0.60;;;0.60;;
40044;SDS011;25735;48.122;11.422;2023-04-24T00:44:17;1.27;;;0.90;;
40044;SDS011;25735;48.122;11.422;2023-04-24T00:46:42;0.50;;;0.43;;
40044;SDS011;25735;48.122;11.422;2023-04-24T00:49:07;0.95;;;0.52;;
40044;SDS011;25735;48.122;11.422;2023-04-24T00:51:32;0.90;;;0.60;;
40044;SDS011;25735;48.122;11.422;2023-04-24T00:53:58;0.40;;;0.40;;
40044;SDS011;25735;48.122;11.422;2023-04-24T00:56:23;0.73;;;0.50;;
40044;SDS011;25735;48.122;11.422;2023-04-24T00:58:49;0.52;;;0.52;;
40044;SDS011;25735;48.122;11.422;2023-04-24T01:01:14;0.50;;;0.40;;
40044;SDS011;25735;48.122;11.422;2023-04-24T01:03:39;0.45;;;0.30;;
40044;SDS011;25735;48.122;11.422;2023-04-24T01:06:05;0.30;;;0.30;;
40044;SDS011;25735;48.122;11.422;2023-04-24T01:08:30;0.77;;;0.70;;
40044;SDS011;25735;48.122;11.422;2023-04-24T01:10:56;1.48;;;0.47;;
40044;SDS011;25735;48.122;11.422;2023-04-24T01:13:22;0.30;;;0.30;;
40044;SDS011;25735;48.122;11.422;2023-04-24T01:15:47;0.57;;;0.53;;
40044;SDS011;25735;48.122;11.422;2023-04-24T01:18:12;2.03;;;0.40;;
40044;SDS011;25735;48.122;11.422;2023-04-24T01:20:39;0.32;;;0.30;;
40044;SDS011;25735;48.122;11.422;2023-04-24T01:23:05;0.80;;;0.55;;
40044;SDS011;25735;48.122;11.422;2023-04-24T01:25:30;0.50;;;0.50;;
40044;SDS011;25735;48.122;11.422;2023-04-24T01:27:55;0.30;;;0.30;;
40044;SDS011;25735;48.122;11.422;2023-04-24T01:30:20;0.55;;;0.47;;
40044;SDS011;25735;48.122;11.422;2023-04-24T01:32:46;1.05;;;0.40;;
40044;SDS011;25735;48.122;11.422;2023-04-24T01:35:11;0.90;;;0.40;;
40044;SDS011;25735;48.122;11.422;2023-04-24T01:37:36;0.50;;;0.40;;
40044;SDS011;25735;48.122;11.422;2023-04-24T01:40:05;1.55;;;0.40;;
40044;SDS011;25735;48.122;11.422;2023-04-24T01:42:31;0.25;;;0.25;;
40044;SDS011;25735;48.122;11.422;2023-04-24T01:44:56;1.63;;;0.30;;
40044;SDS011;25735;48.122;11.422;2023-04-24T01:47:22;0.82;;;0.20;;
40044;SDS011;25735;48.122;11.422;2023-04-24T01:49:48;1.75;;;0.35;;
40044;SDS011;25735;48.122;11.422;2023-04-24T01:52:13;0.50;;;0.30;;
40044;SDS011;25735;48.122;11.422;2023-04-24T01:54:38;0.65;;;0.40;;
40044;SDS011;25735;48.122;11.422;2023-04-24T01:57:03;0.30;;;0.30;;
40044;SDS011;25735;48.122;11.422;2023-04-24T01:59:29;0.57;;;0.30;;
40044;SDS011;25735;48.122;11.422;2023-04-24T02:01:54;0.30;;;0.20;;
40044;SDS011;25735;48.122;11.422;2023-04-24T02:04:20;0.67;;;0.57;;
40044;SDS011;25735;48.122;11.422;2023-04-24T02:06:45;0.55;;;0.50;;
40044;SDS011;25735;48.122;11.422;2023-04-24T02:09:10;0.77;;;0.38;;
40044;SDS011;25735;48.122;11.422;2023-04-24T02:11:35;0.40;;;0.32;;
40044;SDS011;25735;48.122;11.422;2023-04-24T02:14:00;1.35;;;0.35;;
40044;SDS011;25735;48.122;11.422;2023-04-24T02:16:26;0.63;;;0.40;;
40044;SDS011;25735;48.122;11.422;2023-04-24T02:18:51;0.43;;;0.40;;
40044;SDS011;25735;48.122;11.422;2023-04-24T02:21:16;0.83;;;0.57;;
40044;SDS011;25735;48.122;11.422;2023-04-24T02:23:41;0.55;;;0.40;;
40044;SDS011;25735;48.122;11.422;2023-04-24T02:26:06;1.60;;;0.67;;
40044;SDS011;25735;48.122;11.422;2023-04-24T02:28:32;1.23;;;0.47;;
40044;SDS011;25735;48.122;11.422;2023-04-24T02:30:57;0.80;;;0.35;;
40044;SDS011;25735;48.122;11.422;2023-04-24T02:33:22;0.35;;;0.35;;
40044;SDS011;25735;48.122;11.422;2023-04-24T02:35:47;2.57;;;0.67;;
40044;SDS011;25735;48.122;11.422;2023-04-24T02:38:12;0.40;;;0.40;;
40044;SDS011;25735;48.122;11.422;2023-04-24T02:40:37;2.07;;;0.50;;
40044;SDS011;25735;48.122;11.422;2023-04-24T02:43:03;1.07;;;0.40;;
40044;SDS011;25735;48.122;11.422;2023-04-24T02:45:28;1.35;;;0.65;;
40044;SDS011;25735;48.122;11.422;2023-04-24T02:47:53;0.40;;;0.40;;
40044;SDS011;25735;48.122;11.422;2023-04-24T02:50:18;0.30;;;0.22;;
40044;SDS011;25735;48.122;11.422;2023-04-24T02:52:43;1.10;;;0.50;;
40044;SDS011;25735;48.122;11.422;2023-04-24T02:55:08;1.40;;;0.47;;
40044;SDS011;25735;48.122;11.422;2023-04-24T02:57:34;0.28;;;0.28;;
40044;SDS011;25735;48.122;11.422;2023-04-24T02:59:59;2.05;;;0.30;;
40044;SDS011;25735;48.122;11.422;2023-04-24T03:02:24;1.77;;;0.37;;
40044;SDS011;25735;48.122;11.422;2023-04-24T03:04:49;0.40;;;0.20;;
40044;SDS011;25735;48.122;11.422;2023-04-24T03:07:15;0.45;;;0.45;;
40044;SDS011;25735;48.122;11.422;2023-04-24T03:09:40;0.68;;;0.40;;
40044;SDS011;25735;48.122;11.422;2023-04-24T03:12:05;0.82;;;0.50;;
40044;SDS011;25735;48.122;11.422;2023-04-24T03:14:30;0.85;;;0.40;;
40044;SDS011;25735;48.122;11.422;2023-04-24T03:16:56;0.75;;;0.55;;
40044;SDS011;25735;48.122;11.422;2023-04-24T03:19:21;0.75;;;0.40;;
40044;SDS011;25735;48.122;11.422;2023-04-24T03:21:46;0.70;;;0.60;;
40044;SDS011;25735;48.122;11.422;2023-04-24T03:24:11;0.77;;;0.65;;
40044;SDS011;25735;48.122;11.422;2023-04-24T03:26:37;0.53;;;0.40;;
40044;SDS011;25735;48.122;11.422;2023-04-24T03:29:02;1.23;;;0.60;;
40044;SDS011;25735;48.122;11.422;2023-04-24T03:31:27;3.95;;;0.35;;
40044;SDS011;25735;48.122;11.422;2023-04-24T03:33:52;0.90;;;0.57;;
40044;SDS011;25735;48.122;11.422;2023-04-24T03:36:17;0.50;;;0.37;;
40044;SDS011;25735;48.122;11.422;2023-04-24T03:38:44;0.47;;;0.45;;
40044;SDS011;25735;48.122;11.422;2023-04-24T03:41:09;0.73;;;0.47;;
40044;SDS011;25735;48.122;11.422;2023-04-24T03:43:34;2.63;;;0.47;;
40044;SDS011;25735;48.122;11.422;2023-04-24T03:46:00;0.47;;;0.47;;
40044;SDS011;25735;48.122;11.422;2023-04-24T03:48:25;0.82;;;0.63;;
40044;SDS011;25735;48.122;11.422;2023-04-24T03:50:50;1.03;;;0.57;;
40044;SDS011;25735;48.122;11.422;2023-04-24T03:53:15;0.70;;;0.50;;
40044;SDS011;25735;48.122;11.422;2023-04-24T03:55:40;0.77;;;0.50;;
40044;SDS011;25735;48.122;11.422;2023-04-24T03:58:06;1.35;;;0.52;;
40044;SDS011;25735;48.122;11.422;2023-04-24T04:00:31;1.53;;;0.70;;
40044;SDS011;25735;48.122;11.422;2023-04-24T04:02:57;0.57;;;0.57;;
40044;SDS011;25735;48.122;11.422;2023-04-24T04:05:22;0.57;;;0.50;;
40044;SDS011;25735;48.122;11.422;2023-04-24T04:07:47;1.05;;;0.50;;
40044;SDS011;25735;48.122;11.422;2023-04-24T04:10:12;0.45;;;0.40;;
40044;SDS011;25735;48.122;11.422;2023-04-24T04:12:37;0.70;;;0.30;;
40044;SDS011;25735;48.122;11.422;2023-04-24T04:15:03;2.05;;;0.65;;
40044;SDS011;25735;48.122;11.422;2023-04-24T04:17:29;0.75;;;0.43;;
40044;SDS011;25735;48.122;11.422;2023-04-24T04:19:54;0.30;;;0.30;;
40044;SDS011;25735;48.122;11.422;2023-04-24T04:22:20;0.47;;;0.40;;
40044;SDS011;25735;48.122;11.422;2023-04-24T04:24:45;1.23;;;0.70;;
40044;SDS011;25735;48.122;11.422;2023-04-24T04:27:11;1.92;;;0.50;;
40044;SDS011;25735;48.122;11.422;2023-04-24T04:29:37;0.35;;;0.35;;
40044;SDS011;25735;48.122;11.422;2023-04-24T04:32:03;1.27;;;0.50;;
40044;SDS011;25735;48.122;11.422;2023-04-24T04:34:29;0.82;;;0.60;;
40044;SDS011;25735;48.122;11.422;2023-04-24T04:36:56;0.60;;;0.50;;
40044;SDS011;25735;48.122;11.422;2023-04-24T04:39:24;0.35;;;0.30;;
40044;SDS011;25735;48.122;11.422;2023-04-24T04:41:49;0.60;;;0.30;;
40044;SDS011;25735;48.122;11.422;2023-04-24T04:44:15;1.15;;;0.73;;
40044;SDS011;25735;48.122;11.422;2023-04-24T04:46:40;0.50;;;0.40;;
40044;SDS011;25735;48.122;11.422;2023-04-24T04:49:06;0.50;;;0.40;;
40044;SDS011;25735;48.122;11.422;2023-04-24T04:51:33;0.30;;;0.30;;
40044;SDS011;25735;48.122;11.422;2023-04-24T04:53:59;0.40;;;0.30;;
40044;SDS011;25735;48.122;11.422;2023-04-24T04:56:24;0.35;;;0.30;;
40044;SDS011;25735;48.122;11.422;2023-04-24T04:58:49;1.13;;;0.40;;
40044;SDS011;25735;48.122;11.422;2023-04-24T05:01:14;0.37;;;0.27;;
40044;SDS011;25735;48.122;11.422;2023-04-24T05:03:40;0.43;;;0.40;;
40044;SDS011;25735;48.122;11.422;2023-04-24T05:06:05;0.63;;;0.30;;
40044;SDS011;25735;48.122;11.422;2023-04-24T05:08:30;1.92;;;0.30;;
40044;SDS011;25735;48.122;11.422;2023-04-24T05:10:56;3.23;;;0.60;;
40044;SDS011;25735;48.122;11.422;2023-04-24T05:13:21;0.40;;;0.28;;
40044;SDS011;25735;48.122;11.422;2023-04-24T05:15:46;1.90;;;0.30;;
40044;SDS011;25735;48.122;11.422;2023-04-24T05:18:11;3.00;;;0.30;;
40044;SDS011;25735;48.122;11.422;2023-04-24T05:20:36;1.27;;;0.30;;
40044;SDS011;25735;48.122;11.422;2023-04-24T05:23:02;0.73;;;0.30;;
40044;SDS011;25735;48.122;11.422;2023-04-24T05:25:27;0.40;;;0.30;;
40044;SDS011;25735;48.122;11.422;2023-04-24T05:27:52;1.00;;;0.27;;
40044;SDS011;25735;48.122;11.422;2023-04-24T05:30:18;0.10;;;0.10;;
40044;SDS011;25735;48.122;11.422;2023-04-24T05:32:43;0.20;;;0.10;;
40044;SDS011;25735;48.122;11.422;2023-04-24T05:35:08;1.35;;;0.30;;
40044;SDS011;25735;48.122;11.422;2023-04-24T05:37:33;1.27;;;0.40;;
40044;SDS011;25735;48.122;11.422;2023-04-24T05:39:59;0.30;;;0.30;;
40044;SDS011;25735;48.122;11.422;2023-04-24T05:42:24;0.40;;;0.38;;
40044;SDS011;25735;48.122;11.422;2023-04-24T05:44:49;0.20;;;0.20;;
40044;SDS011;25735;48.122;11.422;2023-04-24T05:47:15;2.85;;;0.32;;
40044;SDS011;25735;48.122;11.422;2023-04-24T05:49:40;1.30;;;0.50;;
40044;SDS011;25735;48.122;11.422;2023-04-24T05:52:05;0.30;;;0.30;;
40044;SDS011;25735;48.122;11.422;2023-04-24T05:54:33;0.25;;;0.25;;
40044;SDS011;25735;48.122;11.422;2023-04-24T05:56:58;1.40;;;0.40;;
40044;SDS011;25735;48.122;11.422;2023-04-24T05:59:23;0.30;;;0.20;;
40044;SDS011;25735;48.122;11.422;2023-04-24T06:01:49;0.20;;;0.10;;
40044;SDS011;25735;48.122;11.422;2023-04-24T06:04:14;1.60;;;0.17;;
40044;SDS011;25735;48.122;11.422;2023-04-24T06:06:39;1.00;;;0.23;;
40044;SDS011;25735;48.122;11.422;2023-04-24T06:09:05;1.17;;;0.30;;
40044;SDS011;25735;48.122;11.422;2023-04-24T06:11:30;0.20;;;0.20;;
40044;SDS011;25735;48.122;11.422;2023-04-24T06:13:55;0.40;;;0.10;;
40044;SDS011;25735;48.122;11.422;2023-04-24T06:16:20;0.30;;;0.10;;
40044;SDS011;25735;48.122;11.422;2023-04-24T06:18:46;0.30;;;0.27;;
40044;SDS011;25735;48.122;11.422;2023-04-24T06:21:12;0.20;;;0.20;;
40044;SDS011;25735;48.122;11.422;2023-04-24T06:23:37;0.50;;;0.20;;
40044;SDS011;25735;48.122;11.422;2023-04-24T06:26:02;0.10;;;0.10;;
40044;SDS011;25735;48.122;11.422;2023-04-24T06:28:27;0.10;;;0.10;;
40044;SDS011;25735;48.122;11.422;2023-04-24T06:30:52;0.13;;;0.10;;
40044;SDS011;25735;48.122;11.422;2023-04-24T06:33:18;0.30;;;0.17;;
40044;SDS011;25735;48.122;11.422;2023-04-24T06:35:43;0.30;;;0.10;;
40044;SDS011;25735;48.122;11.422;2023-04-24T06:38:11;0.43;;;0.13;;
40044;SDS011;25735;48.122;11.422;2023-04-24T06:40:36;0.85;;;0.15;;
40044;SDS011;25735;48.122;11.422;2023-04-24T06:43:01;0.40;;;0.10;;
40044;SDS011;25735;48.122;11.422;2023-04-24T06:45:28;0.40;;;0.10;;
40044;SDS011;25735;48.122;11.422;2023-04-24T06:47:53;1.08;;;0.25;;
40044;SDS011;25735;48.122;11.422;2023-04-24T06:50:18;0.43;;;0.20;;
40044;SDS011;25735;48.122;11.422;2023-04-24T06:52:43;0.57;;;0.10;;
40044;SDS011;25735;48.122;11.422;2023-04-24T06:55:09;0.10;;;0.10;;
40044;SDS011;25735;48.122;11.422;2023-04-24T06:57:35;0.30;;;0.20;;
40044;SDS011;25735;48.122;11.422;2023-04-24T07:00:01;0.30;;;0.28;;
40044;SDS011;25735;48.122;11.422;2023-04-24T07:02:26;0.40;;;0.25;;
40044;SDS011;25735;48.122;11.422;2023-04-24T07:04:51;0.20;;;0.20;;
40044;SDS011;25735;48.122;11.422;2023-04-24T07:07:17;1.73;;;0.20;;
40044;SDS011;25735;48.122;11.422;2023-04-24T07:09:43;0.80;;;0.17;;
40044;SDS011;25735;48.122;11.422;2023-04-24T07:12:09;3.28;;;0.28;;
40044;SDS011;25735;48.122;11.422;2023-04-24T07:14:35;0.47;;;0.17;;
40044;SDS011;25735;48.122;11.422;2023-04-24T07:17:01;0.82;;;0.38;;
40044;SDS011;25735;48.122;11.422;2023-04-24T07:19:27;1.02;;;0.15;;
40044;SDS011;25735;48.122;11.422;2023-04-24T07:21:52;0.20;;;0.05;;
40044;SDS011;25735;48.122;11.422;2023-04-24T07:24:18;0.63;;;0.10;;
40044;SDS011;25735;48.122;11.422;2023-04-24T07:26:43;0.60;;;0.10;;
40044;SDS011;25735;48.122;11.422;2023-04-24T07:29:08;0.20;;;0.17;;
40044;SDS011;25735;48.122;11.422;2023-04-24T07:31:33;0.10;;;0.10;;
40044;SDS011;25735;48.122;11.422;2023-04-24T07:33:59;0.45;;;0.10;;
40044;SDS011;25735;48.122;11.422;2023-04-24T07:36:24;0.25;;;0.10;;
40044;SDS011;25735;48.122;11.422;2023-04-24T07:38:50;0.70;;;0.70;;
40044;SDS011;25735;48.122;11.422;2023-04-24T07:41:16;1.53;;;0.30;;
40044;SDS011;25735;48.122;11.422;2023-04-24T07:43:41;1.15;;;0.10;;
40044;SDS011;25735;48.122;11.422;2023-04-24T07:46:07;0.10;;;0.10;;
40044;SDS011;25735;48.122;11.422;2023-04-24T07:48:32;0.30;;;0.20;;
40044;SDS011;25735;48.122;11.422;2023-04-24T07:50:57;0.13;;;0.10;;
40044;SDS011;25735;48.122;11.422;2023-04-24T07:53:22;0.45;;;0.28;;
40044;SDS011;25735;48.122;11.422;2023-04-24T07:55:47;0.20;;;0.20;;
40044;SDS011;25735;48.122;11.422;2023-04-24T07:58:13;0.65;;;0.20;;
40044;SDS011;25735;48.122;11.422;2023-04-24T08:00:38;0.50;;;0.20;;
40044;SDS011;25735;48.122;11.422;2023-04-24T08:03:03;1.83;;;0.27;;
40044;SDS011;25735;48.122;11.422;2023-04-24T08:05:28;0.10;;;0.10;;
40044;SDS011;25735;48.122;11.422;2023-04-24T08:07:54;0.60;;;0.20;;
40044;SDS011;25735;48.122;11.422;2023-04-24T08:10:19;0.32;;;0.10;;
40044;SDS011;25735;48.122;11.422;2023-04-24T08:12:45;1.23;;;0.30;;
40044;SDS011;25735;48.122;11.422;2023-04-24T08:15:10;0.25;;;0.10;;
40044;SDS011;25735;48.122;11.422;2023-04-24T08:17:35;0.30;;;0.30;;
40044;SDS011;25735;48.122;11.422;2023-04-24T08:20:01;0.25;;;0.17;;
40044;SDS011;25735;48.122;11.422;2023-04-24T08:22:27;0.20;;;0.20;;
40044;SDS011;25735;48.122;11.422;2023-04-24T08:24:53;0.45;;;0.10;;
40044;SDS011;25735;48.122;11.422;2023-04-24T08:27:18;0.25;;;0.20;;
40044;SDS011;25735;48.122;11.422;2023-04-24T08:29:43;2.33;;;0.30;;
40044;SDS011;25735;48.122;11.422;2023-04-24T08:32:08;0.87;;;0.43;;
40044;SDS011;25735;48.122;11.422;2023-04-24T08:34:33;2.93;;;0.70;;
40044;SDS011;25735;48.122;11.422;2023-04-24T08:36:59;2.25;;;0.60;;
40044;SDS011;25735;48.122;11.422;2023-04-24T08:39:24;2.95;;;0.63;;
40044;SDS011;25735;48.122;11.422;2023-04-24T08:41:49;0.98;;;0.52;;
40044;SDS011;25735;48.122;11.422;2023-04-24T08:44:15;1.35;;;0.70;;
40044;SDS011;25735;48.122;11.422;2023-04-24T08:46:42;0.85;;;0.73;;
40044;SDS011;25735;48.122;11.422;2023-04-24T08:49:08;1.05;;;0.75;;
40044;SDS011;25735;48.122;11.422;2023-04-24T08:51:34;0.75;;;0.60;;
40044;SDS011;25735;48.122;11.422;2023-04-24T08:54:01;0.70;;;0.70;;
40044;SDS011;25735;48.122;11.422;2023-04-24T08:56:28;3.35;;;0.80;;
40044;SDS011;25735;48.122;11.422;2023-04-24T08:58:55;0.73;;;0.60;;
40044;SDS011;25735;48.122;11.422;2023-04-24T09:01:20;0.75;;;0.73;;
40044;SDS011;25735;48.122;11.422;2023-04-24T09:03:48;2.05;;;0.50;;
40044;SDS011;25735;48.122;11.422;2023-04-24T09:06:14;0.60;;;0.57;;
40044;SDS011;25735;48.122;11.422;2023-04-24T09:08:40;2.33;;;0.60;;
40044;SDS011;25735;48.122;11.422;2023-04-24T09:11:06;0.60;;;0.60;;
40044;SDS011;25735;48.122;11.422;2023-04-24T09:13:31;0.60;;;0.50;;
40044;SDS011;25735;48.122;11.422;2023-04-24T09:15:56;5.20;;;1.00;;
40044;SDS011;25735;48.122;11.422;2023-04-24T09:18:22;2.70;;;0.60;;
40044;SDS011;25735;48.122;11.422;2023-04-24T09:20:57;0.50;;;0.50;;
40044;SDS011;25735;48.122;11.422;2023-04-24T09:23:22;1.30;;;0.52;;
40044;SDS011;25735;48.122;11.422;2023-04-24T09:25:48;0.70;;;0.60;;
40044;SDS011;25735;48.122;11.422;2023-04-24T09:28:19;1.00;;;0.80;;
40044;SDS011;25735;48.122;11.422;2023-04-24T09:30:44;2.00;;;0.87;;
40044;SDS011;25735;48.122;11.422;2023-04-24T09:33:15;0.75;;;0.65;;
40044;SDS011;25735;48.122;11.422;2023-04-24T09:35:41;2.13;;;1.23;;
40044;SDS011;25735;48.122;11.422;2023-04-24T09:38:07;0.60;;;0.60;;
40044;SDS011;25735;48.122;11.422;2023-04-24T09:40:33;1.33;;;0.60;;
40044;SDS011;25735;48.122;11.422;2023-04-24T09:42:59;2.17;;;0.63;;
40044;SDS011;25735;48.122;11.422;2023-04-24T09:45:36;1.02;;;0.60;;
40044;SDS011;25735;48.122;11.422;2023-04-24T09:48:01;0.28;;;0.28;;
40044;SDS011;25735;48.122;11.422;2023-04-24T09:50:27;1.00;;;0.63;;
40044;SDS011;25735;48.122;11.422;2023-04-24T09:52:59;1.00;;;0.60;;
40044;SDS011;25735;48.122;11.422;2023-04-24T09:55:26;1.75;;;0.50;;
40044;SDS011;25735;48.122;11.422;2023-04-24T09:57:52;0.82;;;0.82;;
40044;SDS011;25735;48.122;11.422;2023-04-24T10:00:24;0.60;;;0.60;;
40044;SDS011;25735;48.122;11.422;2023-04-24T10:02:54;0.57;;;0.57;;
40044;SDS011;25735;48.122;11.422;2023-04-24T10:05:21;1.35;;;0.80;;
40044;SDS011;25735;48.122;11.422;2023-04-24T10:07:47;1.23;;;0.98;;
40044;SDS011;25735;48.122;11.422;2023-04-24T10:10:12;0.93;;;0.90;;
40044;SDS011;25735;48.122;11.422;2023-04-24T10:12:38;0.68;;;0.68;;
40044;SDS011;25735;48.122;11.422;2023-04-24T10:15:04;0.98;;;0.80;;
40044;SDS011;25735;48.122;11.422;2023-04-24T10:17:30;1.00;;;0.77;;
40044;SDS011;25735;48.122;11.422;2023-04-24T10:19:56;2.65;;;0.93;;
40044;SDS011;25735;48.122;11.422;2023-04-24T10:22:21;0.70;;;0.70;;
40044;SDS011;25735;48.122;11.422;2023-04-24T10:24:47;0.93;;;0.85;;
40044;SDS011;25735;48.122;11.422;2023-04-24T10:27:13;1.38;;;1.20;;
40044;SDS011;25735;48.122;11.422;2023-04-24T10:29:40;1.15;;;0.80;;
40044;SDS011;25735;48.122;11.422;2023-04-24T10:32:06;1.13;;;0.70;;
40044;SDS011;25735;48.122;11.422;2023-04-24T10:34:32;5.22;;;1.00;;
40044;SDS011;25735;48.122;11.422;2023-04-24T10:36:57;1.87;;;1.20;;
40044;SDS011;25735;48.122;11.422;2023-04-24T10:39:22;1.05;;;0.88;;
40044;SDS011;25735;48.122;11.422;2023-04-24T10:41:50;2.70;;;0.68;;
40044;SDS011;25735;48.122;11.422;2023-04-24T10:44:16;0.60;;;0.60;;
40044;SDS011;25735;48.122;11.422;2023-04-24T10:46:45;1.30;;;0.50;;
40044;SDS011;25735;48.122;11.422;2023-04-24T10:49:10;0.40;;;0.40;;
40044;SDS011;25735;48.122;11.422;2023-04-24T10:51:46;1.38;;;0.65;;
40044;SDS011;25735;48.122;11.422;2023-04-24T10:59:48;5.10;;;0.60;;
40044;SDS011;25735;48.122;11.422;2023-04-24T11:02:14;1.27;;;0.50;;
40044;SDS011;25735;48.122;11.422;2023-04-24T11:04:40;1.10;;;0.43;;
40044;SDS011;25735;48.122;11.422;2023-04-24T11:07:05;0.35;;;0.35;;
40044;SDS011;25735;48.122;11.422;2023-04-24T11:09:31;1.27;;;0.73;;
40044;SDS011;25735;48.122;11.422;2023-04-24T11:12:03;2.47;;;0.60;;
40044;SDS011;25735;48.122;11.422;2023-04-24T11:14:31;1.35;;;0.68;;
40044;SDS011;25735;48.122;11.422;2023-04-24T11:17:29;1.73;;;0.60;;
40044;SDS011;25735;48.122;11.422;2023-04-24T11:20:00;0.88;;;0.70;;
40044;SDS011;25735;48.122;11.422;2023-04-24T11:22:25;0.90;;;0.80;;
40044;SDS011;25735;48.122;11.422;2023-04-24T11:24:53;1.05;;;0.82;;
40044;SDS011;25735;48.122;11.422;2023-04-24T11:27:19;0.52;;;0.40;;
40044;SDS011;25735;48.122;11.422;2023-04-24T11:35:22;2.72;;;1.15;;
40044;SDS011;25735;48.122;11.422;2023-04-24T11:37:50;1.15;;;0.90;;
40044;SDS011;25735;48.122;11.422;2023-04-24T11:40:17;0.93;;;0.82;;
40044;SDS011;25735;48.122;11.422;2023-04-24T11:42:44;1.30;;;0.80;;
40044;SDS011;25735;48.122;11.422;2023-04-24T11:45:11;0.95;;;0.85;;
40044;SDS011;25735;48.122;11.422;2023-04-24T11:47:36;0.88;;;0.65;;
40044;SDS011;25735;48.122;11.422;2023-04-24T11:50:02;2.60;;;0.80;;
40044;SDS011;25735;48.122;11.422;2023-04-24T11:52:29;0.85;;;0.50;;
40044;SDS011;25735;48.122;11.422;2023-04-24T11:54:54;0.60;;;0.60;;
40044;SDS011;25735;48.122;11.422;2023-04-24T11:57:20;1.13;;;0.60;;
40044;SDS011;25735;48.122;11.422;2023-04-24T11:59:46;2.35;;;0.80;;
40044;SDS011;25735;48.122;11.422;2023-04-24T12:02:21;0.68;;;0.68;;
40044;SDS011;25735;48.122;11.422;2023-04-24T12:04:46;0.65;;;0.60;;
40044;SDS011;25735;48.122;11.422;2023-04-24T12:07:12;1.07;;;0.90;;
40044;SDS011;25735;48.122;11.422;2023-04-24T12:09:40;0.77;;;0.77;;
40044;SDS011;25735;48.122;11.422;2023-04-24T12:12:06;0.65;;;0.40;;
40044;SDS011;25735;48.122;11.422;2023-04-24T12:14:31;0.70;;;0.50;;
40044;SDS011;25735;48.122;11.422;2023-04-24T12:16:56;0.98;;;0.77;;
40044;SDS011;25735;48.122;11.422;2023-04-24T12:19:22;2.33;;;0.77;;
40044;SDS011;25735;48.122;11.422;2023-04-24T12:22:20;0.68;;;0.65;;
40044;SDS011;25735;48.122;11.422;2023-04-24T12:27:23;0.68;;;0.68;;
40044;SDS011;25735;48.122;11.422;2023-04-24T12:29:57;0.85;;;0.65;;
40044;SDS011;25735;48.122;11.422;2023-04-24T12:32:23;1.88;;;0.60;;
40044;SDS011;25735;48.122;11.422;2023-04-24T12:34:50;1.48;;;0.50;;
40044;SDS011;25735;48.122;11.422;2023-04-24T12:37:16;0.60;;;0.60;;
40044;SDS011;25735;48.122;11.422;2023-04-24T12:40:00;1.30;;;0.73;;
40044;SDS011;25735;48.122;11.422;2023-04-24T12:42:28;0.50;;;0.50;;
40044;SDS011;25735;48.122;11.422;2023-04-24T12:44:57;3.63;;;0.75;;
40044;SDS011;25735;48.122;11.422;2023-04-24T12:47:24;0.60;;;0.60;;
40044;SDS011;25735;48.122;11.422;2023-04-24T12:49:49;0.50;;;0.45;;
40044;SDS011;25735;48.122;11.422;2023-04-24T12:52:15;2.45;;;0.77;;
40044;SDS011;25735;48.122;11.422;2023-04-24T12:54:42;2.67;;;0.63;;
40044;SDS011;25735;48.122;11.422;2023-04-24T12:57:07;1.83;;;0.90;;
40044;SDS011;25735;48.122;11.422;2023-04-24T12:59:32;1.40;;;0.73;;
40044;SDS011;25735;48.122;11.422;2023-04-24T13:01:57;6.93;;;0.90;;
40044;SDS011;25735;48.122;11.422;2023-04-24T13:04:23;0.77;;;0.60;;
40044;SDS011;25735;48.122;11.422;2023-04-24T13:06:48;1.07;;;0.73;;
40044;SDS011;25735;48.122;11.422;2023-04-24T13:09:13;1.52;;;1.35;;
40044;SDS011;25735;48.122;11.422;2023-04-24T13:11:38;0.77;;;0.77;;
40044;SDS011;25735;48.122;11.422;2023-04-24T13:14:03;3.03;;;0.80;;
40044;SDS011;25735;48.122;11.422;2023-04-24T13:16:28;2.00;;;0.83;;
40044;SDS011;25735;48.122;11.422;2023-04-24T13:18:54;1.63;;;0.80;;
40044;SDS011;25735;48.122;11.422;2023-04-24T13:21:19;3.22;;;1.13;;
40044;SDS011;25735;48.122;11.422;2023-04-24T13:23:44;1.80;;;0.90;;
40044;SDS011;25735;48.122;11.422;2023-04-24T13:26:09;3.00;;;0.63;;
40044;SDS011;25735;48.122;11.422;2023-04-24T13:28:34;1.00;;;0.83;;
40044;SDS011;25735;48.122;11.422;2023-04-24T13:30:59;1.17;;;0.50;;
40044;SDS011;25735;48.122;11.422;2023-04-24T13:33:25;0.90;;;0.80;;
40044;SDS011;25735;48.122;11.422;2023-04-24T13:35:50;3.40;;;1.03;;
40044;SDS011;25735;48.122;11.422;2023-04-24T13:38:15;2.23;;;0.70;;
40044;SDS011;25735;48.122;11.422;2023-04-24T13:40:40;1.77;;;0.70;;
40044;SDS011;25735;48.122;11.422;2023-04-24T13:43:06;1.10;;;1.05;;
40044;SDS011;25735;48.122;11.422;2023-04-24T13:45:31;0.60;;;0.60;;
40044;SDS011;25735;48.122;11.422;2023-04-24T13:47:56;2.50;;;0.90;;
40044;SDS011;25735;48.122;11.422;2023-04-24T13:50:22;1.77;;;1.00;;
40044;SDS011;25735;48.122;11.422;2023-04-24T13:52:47;2.67;;;0.90;;
40044;SDS011;25735;48.122;11.422;2023-04-24T13:55:12;1.93;;;0.80;;
40044;SDS011;25735;48.122;11.422;2023-04-24T13:57:37;1.17;;;0.70;;
40044;SDS011;25735;48.122;11.422;2023-04-24T14:00:03;1.67;;;0.80;;
40044;SDS011;25735;48.122;11.422;2023-04-24T14:02:29;4.45;;;1.30;;
40044;SDS011;25735;48.122;11.422;2023-04-24T14:04:54;0.80;;;0.70;;
40044;SDS011;25735;48.122;11.422;2023-04-24T14:07:19;2.10;;;1.02;;
40044;SDS011;25735;48.122;11.422;2023-04-24T14:09:44;3.97;;;1.00;;
40044;SDS011;25735;48.122;11.422;2023-04-24T14:12:09;0.73;;;0.73;;
40044;SDS011;25735;48.122;11.422;2023-04-24T14:14:35;2.00;;;0.73;;
40044;SDS011;25735;48.122;11.422;2023-04-24T14:17:00;2.73;;;1.43;;
40044;SDS011;25735;48.122;11.422;2023-04-24T14:19:25;0.95;;;0.77;;
40044;SDS011;25735;48.122;11.422;2023-04-24T14:21:50;2.17;;;0.73;;
40044;SDS011;25735;48.122;11.422;2023-04-24T14:24:15;2.03;;;0.83;;
40044;SDS011;25735;48.122;11.422;2023-04-24T14:26:41;1.95;;;0.85;;
40044;SDS011;25735;48.122;11.422;2023-04-24T14:29:06;0.87;;;0.70;;
40044;SDS011;25735;48.122;11.422;2023-04-24T14:31:31;0.70;;;0.70;;
40044;SDS011;25735;48.122;11.422;2023-04-24T14:33:56;2.10;;;0.80;;
40044;SDS011;25735;48.122;11.422;2023-04-24T14:36:22;1.10;;;1.00;;
40044;SDS011;25735;48.122;11.422;2023-04-24T14:38:47;1.63;;;1.30;;